Time;durP1;ratioP1;P1;durP2;ratioP2;P2;SDS_P1;SDS_P2;PMS_P1;PMS_P2;Temp;Humidity;BMP_temperature;BMP_pressure;BME280_temperature;BME280_humidity;BME280_pressure;Samples;Min_cycle;Max_cycle;Signal;HPM_P1;HPM_P2
2022/11/24 00:00:32;;;;;;;26.80;6.77;;;;;;;;;;5015645;28;20553;-68
2022/11/24 00:02:59;;;;;;;23.47;6.40;;;;;;;;;;5014862;28;20260;-68
2022/11/24 00:05:24;;;;;;;33.37;7.20;;;;;;;;;;5020532;28;20699;-68
2022/11/24 00:07:50;;;;;;;31.83;6.50;;;;;;;;;;5026295;28;20181;-68
2022/11/24 00:10:15;;;;;;;25.70;5.93;;;;;;;;;;5026004;28;20618;-68
2022/11/24 00:12:41;;;;;;;26.60;6.60;;;;;;;;;;5027948;28;20194;-68
2022/11/24 00:15:06;;;;;;;26.83;7.60;;;;;;;;;;5014456;28;20189;-68
2022/11/24 00:17:31;;;;;;;23.80;5.90;;;;;;;;;;5025644;28;20194;-68
2022/11/24 00:19:57;;;;;;;27.13;5.63;;;;;;;;;;5024701;28;20182;-68
2022/11/24 00:22:22;;;;;;;25.73;6.07;;;;;;;;;;5029178;28;20206;-68
2022/11/24 00:24:47;;;;;;;18.63;6.13;;;;;;;;;;5019104;28;20178;-68
2022/11/24 00:27:13;;;;;;;23.10;5.87;;;;;;;;;;5025494;28;20599;-68
2022/11/24 00:29:38;;;;;;;28.60;5.70;;;;;;;;;;5023503;28;20260;-68
2022/11/24 00:32:05;;;;;;;20.53;5.50;;;;;;;;;;5029440;28;20214;-68
2022/11/24 00:34:31;;;;;;;22.63;5.67;;;;;;;;;;5024921;28;20216;-68
2022/11/24 00:36:56;;;;;;;29.83;6.00;;;;;;;;;;5024588;28;20321;-68
2022/11/24 00:39:22;;;;;;;25.03;4.43;;;;;;;;;;5027643;28;20883;-68
2022/11/24 00:41:48;;;;;;;20.87;4.60;;;;;;;;;;5027456;28;20198;-68
2022/11/24 00:44:13;;;;;;;22.42;5.20;;;;;;;;;;5027354;28;20257;-68
2022/11/24 00:46:39;;;;;;;30.20;5.67;;;;;;;;;;5030200;28;20190;-68
2022/11/24 00:49:05;;;;;;;28.10;6.80;;;;;;;;;;5029633;28;20252;-68
2022/11/24 00:51:30;;;;;;;26.73;5.23;;;;;;;;;;5030886;28;20205;-68
2022/11/24 00:54:00;;;;;;;28.57;5.47;;;;;;;;;;5020908;28;20205;-68
2022/11/24 00:56:27;;;;;;;23.30;4.87;;;;;;;;;;5030445;28;20197;-68
2022/11/24 00:58:52;;;;;;;35.27;5.23;;;;;;;;;;5018385;28;20198;-68
2022/11/24 01:01:21;;;;;;;28.60;5.80;;;;;;;;;;5019066;28;20201;-68
2022/11/24 01:03:47;;;;;;;22.23;4.50;;;;;;;;;;5028832;28;20552;-68
2022/11/24 01:06:23;;;;;;;32.20;5.07;;;;;;;;;;5026804;28;20194;-68
2022/11/24 01:08:48;;;;;;;28.37;4.40;;;;;;;;;;5023272;28;20182;-68
2022/11/24 01:11:24;;;;;;;30.23;5.03;;;;;;;;;;5028120;28;20660;-68
2022/11/24 01:13:58;;;;;;;27.23;4.57;;;;;;;;;;5027735;28;20201;-68
2022/11/24 01:16:31;;;;;;;29.70;4.63;;;;;;;;;;5027788;28;20626;-68
2022/11/24 01:18:57;;;;;;;25.87;4.70;;;;;;;;;;5026509;28;20444;-68
2022/11/24 01:21:22;;;;;;;27.87;4.97;;;;;;;;;;5027183;28;20672;-69
2022/11/24 01:23:48;;;;;;;20.77;4.50;;;;;;;;;;5020871;28;20189;-68
2022/11/24 01:26:16;;;;;;;23.27;4.50;;;;;;;;;;5019650;28;20724;-68
2022/11/24 01:28:41;;;;;;;27.67;4.77;;;;;;;;;;5021006;28;20182;-69
2022/11/24 01:31:07;;;;;;;23.77;4.27;;;;;;;;;;5026600;28;20182;-68
2022/11/24 01:33:34;;;;;;;29.10;4.93;;;;;;;;;;5019428;28;20659;-68
2022/11/24 01:36:00;;;;;;;25.52;4.30;;;;;;;;;;5023068;28;20328;-68
2022/11/24 01:38:26;;;;;;;26.50;4.70;;;;;;;;;;5027604;28;20262;-68
2022/11/24 01:41:14;;;;;;;23.03;4.20;;;;;;;;;;5020255;28;20194;-68
2022/11/24 01:43:40;;;;;;;27.93;4.70;;;;;;;;;;5019394;28;20183;-68
2022/11/24 01:46:12;;;;;;;26.55;4.13;;;;;;;;;;5028868;28;20177;-68
2022/11/24 01:48:42;;;;;;;28.10;4.37;;;;;;;;;;5025420;28;20196;-68
2022/11/24 01:51:19;;;;;;;23.63;3.80;;;;;;;;;;5019477;28;20502;-68
2022/11/24 01:53:50;;;;;;;23.23;4.13;;;;;;;;;;5021121;28;20634;-69
2022/11/24 01:56:17;;;;;;;19.75;3.60;;;;;;;;;;5016846;28;20277;-68
2022/11/24 01:58:44;;;;;;;27.33;4.40;;;;;;;;;;5019768;28;20576;-68
2022/11/24 02:01:10;;;;;;;30.83;3.60;;;;;;;;;;5021192;28;20270;-68
2022/11/24 02:03:38;;;;;;;23.27;3.88;;;;;;;;;;5022459;28;20257;-69
2022/11/24 02:06:10;;;;;;;18.45;4.13;;;;;;;;;;5020103;28;20190;-68
2022/11/24 02:08:47;;;;;;;24.90;4.32;;;;;;;;;;5027491;28;20185;-69
2022/11/24 02:11:12;;;;;;;20.83;3.97;;;;;;;;;;5016941;28;20216;-69
2022/11/24 02:13:40;;;;;;;22.63;3.07;;;;;;;;;;5023909;28;20628;-68
2022/11/24 02:16:07;;;;;;;22.80;3.97;;;;;;;;;;5020997;28;20220;-68
2022/11/24 02:18:33;;;;;;;25.27;4.70;;;;;;;;;;5024035;28;20724;-69
2022/11/24 02:20:59;;;;;;;30.80;4.07;;;;;;;;;;5016683;28;20277;-68
2022/11/24 02:23:42;;;;;;;21.87;3.17;;;;;;;;;;5025082;28;20178;-68
2022/11/24 02:26:44;;;;;;;27.93;3.80;;;;;;;;;;5021530;28;20557;-68
2022/11/24 02:29:11;;;;;;;19.30;3.33;;;;;;;;;;5015002;28;20194;-68
2022/11/24 02:31:45;;;;;;;23.93;3.90;;;;;;;;;;5025224;28;20661;-68
2022/11/24 02:34:10;;;;;;;18.07;3.47;;;;;;;;;;5022861;28;20225;-68
2022/11/24 02:36:36;;;;;;;15.23;3.67;;;;;;;;;;5025365;28;20732;-68
2022/11/24 02:39:01;;;;;;;20.13;3.25;;;;;;;;;;5015385;28;20179;-68
2022/11/24 02:41:27;;;;;;;18.38;3.60;;;;;;;;;;5008571;28;20266;-68
2022/11/24 02:44:00;;;;;;;17.10;3.85;;;;;;;;;;5018881;28;20178;-68
2022/11/24 02:46:26;;;;;;;16.83;3.73;;;;;;;;;;5028056;28;20248;-68
2022/11/24 02:48:51;;;;;;;22.17;3.40;;;;;;;;;;5022684;28;20603;-68
2022/11/24 02:51:16;;;;;;;14.63;2.63;;;;;;;;;;5013120;28;20194;-70
2022/11/24 02:53:42;;;;;;;14.17;3.67;;;;;;;;;;5017449;28;20260;-69
2022/11/24 02:56:07;;;;;;;20.55;3.35;;;;;;;;;;5013693;28;20198;-69
2022/11/24 02:58:33;;;;;;;28.23;4.63;;;;;;;;;;5015518;28;20179;-70
2022/11/24 03:00:58;;;;;;;13.07;2.93;;;;;;;;;;5015996;28;20257;-69
2022/11/24 03:03:24;;;;;;;21.17;3.83;;;;;;;;;;5025816;28;20192;-69
2022/11/24 03:05:49;;;;;;;30.83;3.17;;;;;;;;;;5022025;28;20182;-69
2022/11/24 03:08:15;;;;;;;20.93;3.10;;;;;;;;;;5023095;28;20186;-69
2022/11/24 03:10:41;;;;;;;20.40;3.17;;;;;;;;;;5018909;28;20741;-69
2022/11/24 03:13:06;;;;;;;20.67;3.20;;;;;;;;;;5025342;28;20205;-68
2022/11/24 03:15:32;;;;;;;17.70;3.20;;;;;;;;;;5022410;28;20195;-69
2022/11/24 03:17:57;;;;;;;17.13;3.17;;;;;;;;;;5027246;28;20190;-69
2022/11/24 03:20:23;;;;;;;22.40;3.23;;;;;;;;;;5023768;28;20187;-69
2022/11/24 03:22:49;;;;;;;21.33;3.97;;;;;;;;;;5023388;28;20721;-69
2022/11/24 03:25:14;;;;;;;18.98;2.80;;;;;;;;;;5029852;28;20182;-68
2022/11/24 03:27:40;;;;;;;17.52;3.30;;;;;;;;;;5018588;28;20208;-69
2022/11/24 03:30:06;;;;;;;21.88;3.08;;;;;;;;;;5021861;28;20257;-69
2022/11/24 03:32:31;;;;;;;21.50;5.03;;;;;;;;;;5016208;28;20210;-69
2022/11/24 03:34:57;;;;;;;20.47;3.63;;;;;;;;;;5023568;28;20255;-69
2022/11/24 03:37:22;;;;;;;18.30;3.28;;;;;;;;;;5012783;28;20511;-69
2022/11/24 03:39:48;;;;;;;16.77;2.90;;;;;;;;;;5017846;28;20550;-69
2022/11/24 03:42:13;;;;;;;22.42;3.53;;;;;;;;;;5023259;28;20186;-69
2022/11/24 03:44:39;;;;;;;20.60;2.80;;;;;;;;;;5022830;28;20214;-69
2022/11/24 03:47:04;;;;;;;20.10;3.37;;;;;;;;;;5023913;28;20190;-69
2022/11/24 03:49:30;;;;;;;18.15;3.20;;;;;;;;;;5023797;28;20204;-69
2022/11/24 03:51:55;;;;;;;14.40;2.43;;;;;;;;;;5027267;28;20661;-69
2022/11/24 03:54:21;;;;;;;19.53;3.67;;;;;;;;;;5028016;28;20210;-69
2022/11/24 03:56:46;;;;;;;22.20;3.17;;;;;;;;;;5028519;28;20344;-69
2022/11/24 03:59:12;;;;;;;16.83;3.30;;;;;;;;;;5030527;28;20181;-69
2022/11/24 04:01:37;;;;;;;23.97;2.97;;;;;;;;;;5026749;28;20290;-69
2022/11/24 04:04:03;;;;;;;23.87;3.63;;;;;;;;;;5031204;28;20642;-69
2022/11/24 04:06:28;;;;;;;25.13;3.10;;;;;;;;;;5021791;28;20255;-69
2022/11/24 04:08:54;;;;;;;26.53;3.70;;;;;;;;;;5026958;28;20220;-69
2022/11/24 04:14:03;;;;;;;17.13;2.87;;;;;;;;;;5026254;28;20695;-69
2022/11/24 04:16:28;;;;;;;24.97;2.97;;;;;;;;;;5028857;28;20182;-69
2022/11/24 04:18:54;;;;;;;22.40;3.40;;;;;;;;;;5031096;28;20192;-69
2022/11/24 04:21:20;;;;;;;22.17;3.20;;;;;;;;;;5023707;28;20217;-69
2022/11/24 04:23:45;;;;;;;19.50;3.20;;;;;;;;;;5027407;28;20210;-69
2022/11/24 04:26:11;;;;;;;15.10;3.13;;;;;;;;;;5031023;28;20598;-69
2022/11/24 04:28:37;;;;;;;27.03;3.87;;;;;;;;;;5025961;28;20327;-69
2022/11/24 04:31:03;;;;;;;24.30;3.30;;;;;;;;;;5029273;28;20221;-69
2022/11/24 04:33:29;;;;;;;15.33;3.20;;;;;;;;;;5033077;28;20211;-69
2022/11/24 04:35:54;;;;;;;23.77;3.15;;;;;;;;;;5021848;28;20230;-68
2022/11/24 04:38:19;;;;;;;20.55;3.22;;;;;;;;;;5028138;28;20193;-69
2022/11/24 04:40:45;;;;;;;22.92;3.42;;;;;;;;;;5019054;28;20187;-69
2022/11/24 04:43:10;;;;;;;24.63;3.10;;;;;;;;;;5029172;28;20615;-68
2022/11/24 04:45:36;;;;;;;24.55;3.90;;;;;;;;;;5018992;28;20190;-69
2022/11/24 04:48:02;;;;;;;22.55;3.08;;;;;;;;;;5028551;28;20190;-69
2022/11/24 04:50:27;;;;;;;26.25;3.17;;;;;;;;;;5030082;28;20178;-69
2022/11/24 04:52:52;;;;;;;22.17;3.87;;;;;;;;;;5021163;28;20187;-69
2022/11/24 04:55:18;;;;;;;22.23;3.83;;;;;;;;;;5014624;28;20193;-69
2022/11/24 04:57:43;;;;;;;20.13;3.30;;;;;;;;;;5023057;28;20192;-70
2022/11/24 05:00:09;;;;;;;26.43;3.33;;;;;;;;;;5022789;28;20198;-69
2022/11/24 05:02:35;;;;;;;24.63;3.73;;;;;;;;;;5020679;28;20182;-68
2022/11/24 05:05:00;;;;;;;21.90;3.70;;;;;;;;;;5023773;28;20469;-67
2022/11/24 05:07:26;;;;;;;27.73;4.40;;;;;;;;;;5022233;28;20650;-67
2022/11/24 05:12:35;;;;;;;32.80;4.70;;;;;;;;;;5013084;28;20201;-68
2022/11/24 05:15:03;;;;;;;22.93;4.00;;;;;;;;;;5018248;28;20632;-67
2022/11/24 05:17:30;;;;;;;26.70;3.67;;;;;;;;;;5020748;28;20780;-68
2022/11/24 05:19:56;;;;;;;20.20;3.93;;;;;;;;;;5016166;28;20189;-67
2022/11/24 05:22:21;;;;;;;22.83;4.33;;;;;;;;;;5021418;28;20335;-69
2022/11/24 05:24:47;;;;;;;25.90;4.03;;;;;;;;;;5023253;28;20175;-70
2022/11/24 05:27:12;;;;;;;19.87;3.67;;;;;;;;;;5012654;28;20198;-67
2022/11/24 05:29:37;;;;;;;20.60;4.00;;;;;;;;;;5023561;28;20220;-68
2022/11/24 05:32:03;;;;;;;22.50;3.80;;;;;;;;;;5017249;28;20206;-69
2022/11/24 05:34:32;;;;;;;23.43;3.63;;;;;;;;;;5021765;28;20288;-68
2022/11/24 05:37:01;;;;;;;26.70;3.90;;;;;;;;;;5023554;28;20231;-68
2022/11/24 05:39:29;;;;;;;25.87;3.53;;;;;;;;;;5015534;28;20185;-68
2022/11/24 05:41:55;;;;;;;21.17;3.67;;;;;;;;;;5026749;28;20206;-68
2022/11/24 05:44:20;;;;;;;20.50;3.53;;;;;;;;;;5026634;28;21888;-68
2022/11/24 05:46:45;;;;;;;26.40;4.37;;;;;;;;;;5018642;28;20888;-68
2022/11/24 05:49:10;;;;;;;26.90;4.53;;;;;;;;;;5024831;28;20257;-68
2022/11/24 05:51:36;;;;;;;20.47;3.33;;;;;;;;;;5025647;28;20238;-68
2022/11/24 05:54:01;;;;;;;27.10;3.70;;;;;;;;;;5025929;28;20213;-68
2022/11/24 05:56:26;;;;;;;21.97;3.70;;;;;;;;;;5024317;28;20193;-68
2022/11/24 05:58:52;;;;;;;20.17;3.77;;;;;;;;;;5020085;28;20193;-68
2022/11/24 06:01:17;;;;;;;22.93;4.07;;;;;;;;;;5024397;28;20205;-68
2022/11/24 06:03:42;;;;;;;19.30;3.33;;;;;;;;;;5021816;28;20185;-68
2022/11/24 06:06:09;;;;;;;22.37;3.70;;;;;;;;;;5016583;28;20188;-68
2022/11/24 06:08:34;;;;;;;27.70;3.60;;;;;;;;;;5015355;28;20244;-68
2022/11/24 06:11:19;;;;;;;25.17;4.20;;;;;;;;;;5012408;28;20194;-68
2022/11/24 06:13:45;;;;;;;22.57;3.23;;;;;;;;;;5015927;28;20463;-68
2022/11/24 06:16:11;;;;;;;20.77;3.97;;;;;;;;;;5023078;28;20182;-68
2022/11/24 06:18:37;;;;;;;16.77;3.23;;;;;;;;;;5025742;28;20289;-68
2022/11/24 06:21:03;;;;;;;22.17;3.40;;;;;;;;;;5012492;28;20198;-68
2022/11/24 06:23:29;;;;;;;23.73;3.90;;;;;;;;;;5022933;28;20170;-68
2022/11/24 06:25:57;;;;;;;18.47;3.70;;;;;;;;;;5024643;28;20194;-68
2022/11/24 06:28:23;;;;;;;19.60;3.37;;;;;;;;;;5023955;28;20202;-67
2022/11/24 06:30:48;;;;;;;21.70;3.43;;;;;;;;;;5025300;28;20217;-67
2022/11/24 06:33:13;;;;;;;24.40;3.60;;;;;;;;;;5013631;28;20253;-67
2022/11/24 06:35:38;;;;;;;21.70;3.80;;;;;;;;;;5006594;28;20310;-67
2022/11/24 06:38:04;;;;;;;28.63;3.80;;;;;;;;;;5020967;28;20626;-68
2022/11/24 06:40:29;;;;;;;16.30;2.93;;;;;;;;;;5026351;28;20260;-67
2022/11/24 06:42:55;;;;;;;28.43;4.00;;;;;;;;;;5020319;28;20865;-67
2022/11/24 06:45:20;;;;;;;29.20;3.30;;;;;;;;;;5011947;28;20201;-68
2022/11/24 06:47:45;;;;;;;23.10;3.70;;;;;;;;;;5017583;28;20201;-68
2022/11/24 06:50:11;;;;;;;24.67;4.07;;;;;;;;;;5029123;28;20200;-68
2022/11/24 06:52:36;;;;;;;21.88;2.97;;;;;;;;;;5016189;28;20194;-68
2022/11/24 06:55:01;;;;;;;20.67;3.20;;;;;;;;;;5018135;28;20316;-68
2022/11/24 06:57:30;;;;;;;21.05;2.80;;;;;;;;;;5016693;28;20197;-68
2022/11/24 06:59:56;;;;;;;21.08;3.30;;;;;;;;;;5011761;28;20222;-67
2022/11/24 07:02:21;;;;;;;20.13;3.38;;;;;;;;;;5012264;28;20179;-67
2022/11/24 07:04:46;;;;;;;12.27;2.90;;;;;;;;;;5012814;28;20181;-68
2022/11/24 07:07:12;;;;;;;23.17;4.38;;;;;;;;;;5014340;28;20398;-68
2022/11/24 07:09:37;;;;;;;22.27;3.50;;;;;;;;;;5015568;28;20197;-68
2022/11/24 07:12:04;;;;;;;18.17;3.22;;;;;;;;;;5013596;28;20178;-68
2022/11/24 07:14:30;;;;;;;25.63;3.80;;;;;;;;;;5011311;28;20227;-68
2022/11/24 07:16:55;;;;;;;15.07;3.60;;;;;;;;;;5010253;28;20574;-68
2022/11/24 07:19:20;;;;;;;19.70;3.93;;;;;;;;;;5010632;28;20186;-68
2022/11/24 07:21:46;;;;;;;17.20;3.53;;;;;;;;;;5008211;28;20183;-68
2022/11/24 07:24:11;;;;;;;21.03;4.27;;;;;;;;;;5009381;28;20542;-68
2022/11/24 07:26:36;;;;;;;20.57;3.80;;;;;;;;;;5015433;28;20182;-68
2022/11/24 07:29:03;;;;;;;15.53;3.53;;;;;;;;;;5010486;28;20190;-68
2022/11/24 07:31:29;;;;;;;16.83;4.20;;;;;;;;;;5010634;28;20292;-68
2022/11/24 07:33:54;;;;;;;15.27;3.70;;;;;;;;;;5023798;28;20666;-68
2022/11/24 07:36:21;;;;;;;23.10;4.37;;;;;;;;;;5029015;28;20273;-68
2022/11/24 07:38:46;;;;;;;22.00;4.37;;;;;;;;;;5017201;28;20244;-68
2022/11/24 07:41:13;;;;;;;15.83;3.43;;;;;;;;;;5009757;28;20178;-68
2022/11/24 07:43:39;;;;;;;19.98;4.15;;;;;;;;;;5018574;28;20344;-68
2022/11/24 07:46:06;;;;;;;16.07;4.13;;;;;;;;;;5020226;28;20541;-68
2022/11/24 07:48:32;;;;;;;23.33;4.00;;;;;;;;;;5019686;28;20224;-68
2022/11/24 07:50:59;;;;;;;15.93;3.63;;;;;;;;;;5023016;28;20621;-68
2022/11/24 07:53:24;;;;;;;16.92;4.00;;;;;;;;;;5019502;28;20228;-68
2022/11/24 07:55:54;;;;;;;17.77;3.80;;;;;;;;;;5029504;28;20282;-68
2022/11/24 07:58:20;;;;;;;12.90;3.63;;;;;;;;;;5021257;28;20201;-68
2022/11/24 08:00:45;;;;;;;12.98;3.50;;;;;;;;;;5028449;28;20218;-68
2022/11/24 08:03:10;;;;;;;13.95;3.53;;;;;;;;;;5028120;28;20174;-68
2022/11/24 08:05:36;;;;;;;16.85;3.58;;;;;;;;;;5029405;28;20213;-68
2022/11/24 08:08:01;;;;;;;16.52;3.55;;;;;;;;;;5030305;28;20178;-68
2022/11/24 08:10:26;;;;;;;13.97;3.03;;;;;;;;;;5031324;28;20182;-68
2022/11/24 08:12:52;;;;;;;13.20;3.05;;;;;;;;;;5018869;28;20179;-68
2022/11/24 08:15:17;;;;;;;13.27;3.63;;;;;;;;;;5024582;28;20183;-68
2022/11/24 08:17:42;;;;;;;14.10;2.90;;;;;;;;;;5015244;28;20209;-68
2022/11/24 08:20:08;;;;;;;7.50;2.50;;;;;;;;;;5011493;28;20603;-68
2022/11/24 08:22:34;;;;;;;13.80;3.50;;;;;;;;;;5029729;28;20250;-68
2022/11/24 08:24:59;;;;;;;10.60;2.63;;;;;;;;;;5019081;28;20181;-68
2022/11/24 08:27:24;;;;;;;11.20;2.88;;;;;;;;;;5027989;28;20260;-67
2022/11/24 08:29:50;;;;;;;7.90;2.88;;;;;;;;;;5027962;28;20182;-68
2022/11/24 08:32:15;;;;;;;8.82;2.40;;;;;;;;;;5018621;28;20263;-69
2022/11/24 08:34:40;;;;;;;11.55;3.10;;;;;;;;;;5030525;28;20637;-69
2022/11/24 08:37:06;;;;;;;12.55;3.78;;;;;;;;;;5018264;28;20226;-69
2022/11/24 08:39:32;;;;;;;12.35;3.05;;;;;;;;;;5030828;28;20174;-69
2022/11/24 08:41:58;;;;;;;7.22;2.75;;;;;;;;;;5019408;28;20541;-69
2022/11/24 08:44:23;;;;;;;11.63;3.35;;;;;;;;;;5023718;28;20265;-69
2022/11/24 08:46:49;;;;;;;9.32;2.83;;;;;;;;;;5015115;28;20674;-69
2022/11/24 08:49:15;;;;;;;10.45;3.55;;;;;;;;;;5023605;28;20182;-69
2022/11/24 08:51:42;;;;;;;9.93;2.88;;;;;;;;;;5015136;28;20595;-69
2022/11/24 08:54:09;;;;;;;7.03;3.33;;;;;;;;;;5028308;28;20508;-69
2022/11/24 08:56:34;;;;;;;6.70;2.97;;;;;;;;;;5024952;28;20237;-69
2022/11/24 08:59:01;;;;;;;8.93;3.95;;;;;;;;;;5021496;28;20287;-69
2022/11/24 09:01:27;;;;;;;10.07;3.50;;;;;;;;;;5013621;28;20512;-69
2022/11/24 09:03:53;;;;;;;7.05;2.85;;;;;;;;;;5013379;28;20573;-69
2022/11/24 09:06:24;;;;;;;8.30;3.30;;;;;;;;;;5015777;28;20183;-70
2022/11/24 09:08:50;;;;;;;9.88;3.72;;;;;;;;;;5019949;28;20635;-69
2022/11/24 09:11:16;;;;;;;5.20;3.55;;;;;;;;;;5023704;28;20269;-69
2022/11/24 09:13:42;;;;;;;9.95;4.13;;;;;;;;;;5018038;28;20293;-69
2022/11/24 09:16:13;;;;;;;8.75;4.30;;;;;;;;;;5016481;28;20181;-70
2022/11/24 09:18:39;;;;;;;10.35;5.03;;;;;;;;;;5023586;28;20193;-69
2022/11/24 09:21:07;;;;;;;9.50;4.90;;;;;;;;;;5017556;28;20191;-69
2022/11/24 09:23:32;;;;;;;8.63;4.78;;;;;;;;;;5017119;28;20179;-69
2022/11/24 09:26:04;;;;;;;8.95;5.43;;;;;;;;;;5022808;28;20185;-69
2022/11/24 09:28:30;;;;;;;11.13;6.38;;;;;;;;;;5014771;28;20178;-69
2022/11/24 09:31:00;;;;;;;11.25;6.50;;;;;;;;;;5025357;28;20182;-69
2022/11/24 09:33:25;;;;;;;10.27;6.60;;;;;;;;;;5015796;28;20277;-69
2022/11/24 09:35:50;;;;;;;11.95;6.40;;;;;;;;;;5016306;28;20664;-67
2022/11/24 09:38:16;;;;;;;8.55;6.15;;;;;;;;;;5023855;28;20529;-67
2022/11/24 09:40:41;;;;;;;10.18;7.50;;;;;;;;;;5009661;28;20198;-67
2022/11/24 09:43:16;;;;;;;13.70;7.30;;;;;;;;;;5014136;28;20255;-67
2022/11/24 09:45:57;;;;;;;15.68;7.82;;;;;;;;;;5016412;28;20565;-67
2022/11/24 09:48:29;;;;;;;10.43;7.50;;;;;;;;;;5012100;28;20207;-69
2022/11/24 09:50:58;;;;;;;13.05;8.00;;;;;;;;;;5017113;28;20186;-67
2022/11/24 09:53:38;;;;;;;13.02;7.57;;;;;;;;;;5009036;28;20226;-69
2022/11/24 09:56:27;;;;;;;14.02;8.13;;;;;;;;;;5012438;28;20589;-67
2022/11/24 09:59:15;;;;;;;12.23;7.78;;;;;;;;;;5010730;28;20643;-67
2022/11/24 10:01:42;;;;;;;14.63;7.93;;;;;;;;;;5010985;28;20179;-68
2022/11/24 10:04:18;;;;;;;14.90;8.35;;;;;;;;;;5011388;28;20221;-67
2022/11/24 10:07:08;;;;;;;15.15;8.75;;;;;;;;;;5009663;28;20205;-67
2022/11/24 10:10:02;;;;;;;14.02;8.65;;;;;;;;;;5010449;28;20191;-68
2022/11/24 10:12:45;;;;;;;13.15;8.10;;;;;;;;;;5014096;28;20224;-68
2022/11/24 10:15:51;;;;;;;13.80;8.57;;;;;;;;;;5012570;28;20328;-68
2022/11/24 10:18:40;;;;;;;15.93;8.98;;;;;;;;;;5012985;28;20178;-68
2022/11/24 10:21:31;;;;;;;16.25;7.93;;;;;;;;;;5009855;28;20187;-68
2022/11/24 10:24:35;;;;;;;15.40;8.23;;;;;;;;;;5009570;28;20558;-68
2022/11/24 10:27:07;;;;;;;15.43;8.55;;;;;;;;;;5021177;28;20758;-68
2022/11/24 10:29:38;;;;;;;15.90;8.15;;;;;;;;;;5019643;28;20178;-68
2022/11/24 10:32:12;;;;;;;14.10;8.30;;;;;;;;;;5024263;28;20210;-68
2022/11/24 10:34:42;;;;;;;14.30;8.52;;;;;;;;;;5026532;28;20193;-67
2022/11/24 10:37:10;;;;;;;13.32;8.15;;;;;;;;;;5007644;28;20729;-68
2022/11/24 10:40:15;;;;;;;14.70;8.20;;;;;;;;;;5017434;28;20366;-68
2022/11/24 10:42:42;;;;;;;15.18;7.30;;;;;;;;;;5004384;28;20233;-68
2022/11/24 10:45:15;;;;;;;15.93;8.05;;;;;;;;;;5014674;28;20278;-68
2022/11/24 10:47:42;;;;;;;15.25;8.05;;;;;;;;;;5015205;28;20174;-68
2022/11/24 10:50:26;;;;;;;15.55;8.18;;;;;;;;;;5013840;28;20293;-68
2022/11/24 10:53:10;;;;;;;14.95;7.45;;;;;;;;;;5026002;28;20633;-68
2022/11/24 10:55:56;;;;;;;13.18;7.60;;;;;;;;;;5009823;28;20517;-69
2022/11/24 10:58:27;;;;;;;14.88;7.13;;;;;;;;;;5012913;28;20201;-69
2022/11/24 11:00:54;;;;;;;15.45;6.95;;;;;;;;;;5017090;28;20183;-68
2022/11/24 11:03:25;;;;;;;13.43;7.55;;;;;;;;;;5021945;28;20257;-69
2022/11/24 11:05:58;;;;;;;11.50;6.20;;;;;;;;;;5022092;28;20415;-67
2022/11/24 11:08:25;;;;;;;14.05;6.97;;;;;;;;;;5026857;28;20216;-67
2022/11/24 11:11:15;;;;;;;16.30;6.90;;;;;;;;;;5027428;28;20626;-67
2022/11/24 11:13:55;;;;;;;14.95;7.28;;;;;;;;;;5017801;28;20309;-67
2022/11/24 11:16:37;;;;;;;16.58;7.15;;;;;;;;;;5022000;28;20232;-68
2022/11/24 11:19:05;;;;;;;15.00;6.97;;;;;;;;;;5009383;28;20186;-68
2022/11/24 11:21:33;;;;;;;15.02;7.43;;;;;;;;;;5010447;28;20272;-68
2022/11/24 11:24:00;;;;;;;17.05;6.68;;;;;;;;;;5008273;28;20175;-69
2022/11/24 11:26:32;;;;;;;18.42;6.82;;;;;;;;;;5020017;28;20240;-69
2022/11/24 11:29:14;;;;;;;16.35;7.10;;;;;;;;;;5019038;28;20533;-68
2022/11/24 11:31:39;;;;;;;14.88;6.60;;;;;;;;;;5009843;28;20217;-68
2022/11/24 11:34:08;;;;;;;18.23;7.38;;;;;;;;;;5008130;28;20529;-68
2022/11/24 11:36:35;;;;;;;13.93;6.55;;;;;;;;;;5008296;28;20234;-68
2022/11/24 11:39:02;;;;;;;16.42;6.45;;;;;;;;;;5016145;28;20183;-68
2022/11/24 11:41:39;;;;;;;16.05;6.25;;;;;;;;;;5013660;28;20179;-68
2022/11/24 11:44:30;;;;;;;17.17;7.20;;;;;;;;;;5027894;28;20166;-68
2022/11/24 11:46:58;;;;;;;11.90;5.97;;;;;;;;;;5023583;28;20233;-69
2022/11/24 11:49:23;;;;;;;16.98;5.78;;;;;;;;;;5006928;28;20579;-68
2022/11/24 11:52:20;;;;;;;11.80;4.95;;;;;;;;;;5026163;28;20174;-68
2022/11/24 11:54:58;;;;;;;16.00;5.65;;;;;;;;;;5006320;28;20649;-68
2022/11/24 11:57:34;;;;;;;13.93;5.30;;;;;;;;;;5025393;28;20186;-68
2022/11/24 12:00:09;;;;;;;15.65;5.85;;;;;;;;;;5022634;28;20174;-69
2022/11/24 12:02:47;;;;;;;15.30;5.45;;;;;;;;;;5026605;28;20182;-68
2022/11/24 12:05:40;;;;;;;11.55;5.10;;;;;;;;;;5012670;28;20244;-68
2022/11/24 12:08:11;;;;;;;11.98;5.35;;;;;;;;;;5012140;28;20187;-68
2022/11/24 12:11:04;;;;;;;16.65;5.18;;;;;;;;;;5025894;28;20201;-69
2022/11/24 12:13:55;;;;;;;12.10;4.80;;;;;;;;;;5016930;28;20661;-68
2022/11/24 12:16:51;;;;;;;12.70;4.30;;;;;;;;;;5024542;28;20190;-69
2022/11/24 12:19:41;;;;;;;17.33;4.63;;;;;;;;;;5017579;28;20193;-68
2022/11/24 12:22:22;;;;;;;14.95;4.32;;;;;;;;;;5025845;28;20187;-68
2022/11/24 12:24:55;;;;;;;13.82;4.43;;;;;;;;;;5012280;28;20167;-68
2022/11/24 12:27:42;;;;;;;16.88;4.10;;;;;;;;;;5024914;28;20179;-68
2022/11/24 12:30:19;;;;;;;14.43;3.53;;;;;;;;;;5013455;28;20179;-68
2022/11/24 12:33:03;;;;;;;11.75;3.72;;;;;;;;;;5021434;28;20276;-69
2022/11/24 12:35:36;;;;;;;13.13;3.88;;;;;;;;;;5029098;28;20272;-68
2022/11/24 12:38:04;;;;;;;13.07;3.33;;;;;;;;;;5019221;28;20290;-68
2022/11/24 12:40:44;;;;;;;11.52;4.15;;;;;;;;;;5024111;28;20213;-68
2022/11/24 12:43:34;;;;;;;17.80;3.85;;;;;;;;;;5010875;28;20267;-68
2022/11/24 12:46:06;;;;;;;14.52;4.40;;;;;;;;;;5018444;28;20211;-69
2022/11/24 12:48:41;;;;;;;14.38;4.05;;;;;;;;;;5024217;28;20178;-69
2022/11/24 12:51:21;;;;;;;12.60;2.85;;;;;;;;;;5030979;28;20188;-69
2022/11/24 12:53:49;;;;;;;11.55;2.75;;;;;;;;;;5014121;28;20538;-69
2022/11/24 12:56:18;;;;;;;14.88;3.10;;;;;;;;;;5012308;28;20274;-69
2022/11/24 12:58:49;;;;;;;16.33;3.05;;;;;;;;;;5015271;28;20201;-68
2022/11/24 13:01:29;;;;;;;19.90;3.25;;;;;;;;;;5013689;28;20197;-68
2022/11/24 13:04:11;;;;;;;11.25;3.08;;;;;;;;;;5009227;28;20179;-69
2022/11/24 13:06:56;;;;;;;14.20;3.83;;;;;;;;;;5020172;28;20712;-69
2022/11/24 13:09:21;;;;;;;12.23;3.17;;;;;;;;;;5021336;28;20183;-69
2022/11/24 13:11:49;;;;;;;18.38;3.53;;;;;;;;;;5022409;28;20588;-68
2022/11/24 13:14:16;;;;;;;16.52;3.40;;;;;;;;;;5021126;28;20248;-69
2022/11/24 13:16:59;;;;;;;13.80;3.45;;;;;;;;;;5026666;28;20214;-68
2022/11/24 13:19:28;;;;;;;17.02;3.55;;;;;;;;;;5011497;28;20186;-68
2022/11/24 13:22:06;;;;;;;9.00;2.88;;;;;;;;;;5026166;28;20208;-68
2022/11/24 13:24:37;;;;;;;14.60;3.17;;;;;;;;;;5020407;28;20601;-68
2022/11/24 13:27:14;;;;;;;18.90;3.78;;;;;;;;;;5027846;28;20285;-68
2022/11/24 13:29:45;;;;;;;14.98;3.97;;;;;;;;;;5017327;28;20209;-68
2022/11/24 13:32:16;;;;;;;16.08;3.47;;;;;;;;;;5014569;28;20686;-68
2022/11/24 13:34:41;;;;;;;13.75;3.50;;;;;;;;;;5013922;28;20273;-67
2022/11/24 13:37:22;;;;;;;12.70;3.25;;;;;;;;;;5019569;28;20310;-67
2022/11/24 13:40:02;;;;;;;16.67;3.30;;;;;;;;;;5010417;28;20179;-67
2022/11/24 13:42:29;;;;;;;14.20;3.28;;;;;;;;;;5015826;28;20273;-68
2022/11/24 13:45:03;;;;;;;13.07;3.92;;;;;;;;;;5008919;28;20171;-68
2022/11/24 13:47:33;;;;;;;17.92;4.20;;;;;;;;;;5027636;28;20205;-69
2022/11/24 13:49:59;;;;;;;16.60;2.92;;;;;;;;;;5018025;28;20540;-69
2022/11/24 13:52:39;;;;;;;17.73;3.78;;;;;;;;;;5015205;28;20270;-69
2022/11/24 13:55:10;;;;;;;18.70;2.60;;;;;;;;;;5023881;28;20579;-69
2022/11/24 13:57:41;;;;;;;16.38;2.65;;;;;;;;;;5024373;28;20246;-69
2022/11/24 14:00:25;;;;;;;11.00;3.05;;;;;;;;;;5022598;28;20568;-69
2022/11/24 14:02:53;;;;;;;17.35;3.28;;;;;;;;;;5027213;28;20538;-69
2022/11/24 14:05:22;;;;;;;18.00;3.42;;;;;;;;;;5026820;28;20609;-69
2022/11/24 14:07:50;;;;;;;13.10;2.92;;;;;;;;;;5023734;28;20202;-69
2022/11/24 14:10:26;;;;;;;14.23;2.92;;;;;;;;;;5022825;28;20182;-68
2022/11/24 14:13:22;;;;;;;22.30;4.10;;;;;;;;;;5023124;28;20181;-69
2022/11/24 14:16:13;;;;;;;19.20;3.35;;;;;;;;;;5019950;28;20281;-69
2022/11/24 14:18:41;;;;;;;17.27;3.35;;;;;;;;;;5011432;28;20191;-69
2022/11/24 14:21:18;;;;;;;16.10;3.03;;;;;;;;;;5020650;28;20232;-69
2022/11/24 14:23:47;;;;;;;18.67;3.28;;;;;;;;;;5009791;28;20254;-69
2022/11/24 14:26:20;;;;;;;20.05;3.47;;;;;;;;;;5013681;28;20179;-69
2022/11/24 14:28:46;;;;;;;16.30;4.22;;;;;;;;;;5010251;28;20559;-68
2022/11/24 14:31:18;;;;;;;16.98;3.47;;;;;;;;;;5011144;28;20294;-68
2022/11/24 14:33:43;;;;;;;20.10;2.80;;;;;;;;;;5009887;28;20265;-68
2022/11/24 14:36:14;;;;;;;16.95;3.65;;;;;;;;;;5009448;28;20218;-69
2022/11/24 14:38:40;;;;;;;13.10;2.88;;;;;;;;;;5008531;28;20296;-69
2022/11/24 14:41:25;;;;;;;20.33;3.53;;;;;;;;;;5010369;28;20679;-68
2022/11/24 14:44:04;;;;;;;20.75;3.15;;;;;;;;;;5022687;28;20221;-69
2022/11/24 14:46:30;;;;;;;22.75;3.80;;;;;;;;;;5009834;28;20218;-69
2022/11/24 14:48:55;;;;;;;21.55;3.83;;;;;;;;;;5011664;28;20225;-69
2022/11/24 14:51:35;;;;;;;13.85;3.10;;;;;;;;;;5009705;28;20198;-69